createdAt,value
2019-05-25T00:00:17.398Z,22.42
2019-05-25T00:01:17.393Z,22.41
2019-05-25T00:02:17.384Z,22.34
2019-05-25T00:03:17.378Z,22.38
2019-05-25T00:04:17.393Z,22.38
2019-05-25T00:05:17.389Z,22.36
2019-05-25T00:06:17.381Z,22.36
2019-05-25T00:07:17.374Z,22.38
2019-05-25T00:08:17.367Z,22.35
2019-05-25T00:09:17.368Z,22.38
2019-05-25T00:10:17.353Z,22.41
2019-05-25T00:11:17.345Z,22.34
2019-05-25T00:12:17.340Z,22.36
2019-05-25T00:13:17.337Z,22.44
2019-05-25T00:14:17.327Z,22.41
2019-05-25T00:15:17.321Z,22.34
2019-05-25T00:16:17.313Z,22.42
2019-05-25T00:17:17.334Z,22.42
2019-05-25T00:18:17.301Z,22.39
2019-05-25T00:19:17.314Z,22.35
2019-05-25T00:20:17.306Z,22.36
2019-05-25T00:21:17.299Z,22.42
2019-05-25T00:22:17.291Z,22.38
2019-05-25T00:23:17.289Z,22.41
2019-05-25T00:24:17.284Z,22.35
2019-05-25T00:25:17.276Z,22.34
2019-05-25T00:26:17.270Z,22.34
2019-05-25T00:27:17.272Z,22.41
2019-05-25T00:28:17.257Z,22.38
2019-05-25T00:29:17.257Z,22.36
2019-05-25T00:30:17.243Z,22.38
2019-05-25T00:31:17.237Z,22.35
2019-05-25T00:32:17.232Z,22.39
2019-05-25T00:33:17.223Z,22.35
2019-05-25T00:34:17.217Z,22.39
2019-05-25T00:35:17.211Z,22.39
2019-05-25T00:36:17.205Z,22.41
2019-05-25T00:37:17.247Z,22.38
2019-05-25T00:38:17.197Z,22.36
2019-05-25T00:39:17.186Z,22.36
2019-05-25T00:40:17.176Z,22.45
2019-05-25T00:41:17.176Z,22.53
2019-05-25T00:42:17.167Z,22.35
2019-05-25T00:43:17.159Z,22.41
2019-05-25T00:44:17.149Z,22.41
2019-05-25T00:45:17.145Z,22.44
2019-05-25T00:46:17.138Z,22.46
2019-05-25T00:47:17.133Z,22.29
2019-05-25T00:48:17.127Z,22.42
2019-05-25T00:49:17.119Z,22.38
2019-05-25T00:50:17.115Z,22.38
2019-05-25T00:51:17.112Z,22.35
2019-05-25T00:52:17.115Z,22.39
2019-05-25T00:53:17.099Z,22.34
2019-05-25T00:54:27.416Z,22.42
2019-05-25T00:55:44.872Z,22.32
2019-05-25T00:56:44.870Z,22.39
2019-05-25T00:57:44.861Z,22.41
2019-05-25T00:58:44.852Z,22.42
2019-05-25T00:59:44.847Z,22.35
2019-05-25T01:00:44.842Z,22.36
2019-05-25T01:01:44.839Z,22.45
2019-05-25T01:02:44.896Z,22.39
2019-05-25T01:03:44.818Z,22.38
2019-05-25T01:04:44.813Z,22.45
2019-05-25T01:05:44.804Z,22.34
2019-05-25T01:06:44.800Z,22.39
2019-05-25T01:07:44.794Z,22.32
2019-05-25T01:08:44.787Z,22.36
2019-05-25T01:09:44.781Z,22.41
2019-05-25T01:10:44.774Z,22.44
2019-05-25T01:11:44.770Z,22.41
2019-05-25T01:12:44.767Z,22.39
2019-05-25T01:13:44.761Z,22.34
2019-05-25T01:14:44.761Z,22.35
2019-05-25T01:15:44.753Z,22.38
2019-05-25T01:16:44.810Z,22.41
2019-05-25T01:17:44.743Z,22.46
2019-05-25T01:18:44.734Z,22.38
2019-05-25T01:19:44.727Z,22.42
2019-05-25T01:20:44.720Z,22.39
2019-05-25T01:21:44.712Z,22.42
2019-05-25T01:22:44.708Z,22.46
2019-05-25T01:23:44.697Z,22.32
2019-05-25T01:24:45.102Z,22.42
2019-05-25T01:25:44.684Z,22.46
2019-05-25T01:26:44.716Z,22.41
2019-05-25T01:27:44.672Z,22.45
2019-05-25T01:28:44.663Z,22.32
2019-05-25T01:29:44.662Z,22.44
2019-05-25T01:30:44.701Z,22.42
2019-05-25T01:31:44.645Z,22.41
2019-05-25T01:32:44.639Z,22.38
2019-05-25T01:33:44.633Z,22.36
2019-05-25T01:34:44.626Z,22.39
2019-05-25T01:35:44.626Z,22.36
2019-05-25T01:36:44.613Z,22.41
2019-05-25T01:37:48.259Z,22.41
2019-05-25T01:38:44.598Z,22.35
2019-05-25T01:39:44.596Z,22.38
2019-05-25T01:40:44.586Z,22.45
2019-05-25T01:41:44.582Z,22.44
2019-05-25T01:42:44.623Z,22.41
2019-05-25T01:43:44.565Z,22.45
2019-05-25T01:44:44.560Z,22.48
2019-05-25T01:45:44.554Z,22.39
2019-05-25T01:46:44.544Z,22.38
2019-05-25T01:47:44.548Z,22.44
2019-05-25T01:48:44.532Z,22.39
2019-05-25T01:49:44.525Z,22.42
2019-05-25T01:50:44.519Z,22.36
2019-05-25T01:51:44.512Z,22.36
2019-05-25T01:52:44.503Z,22.36
2019-05-25T01:53:44.497Z,22.36
2019-05-25T01:54:58.963Z,22.36
2019-05-25T01:56:12.209Z,22.41
2019-05-25T01:57:12.204Z,22.27
2019-05-25T01:58:12.195Z,22.36
2019-05-25T01:59:12.191Z,22.36
2019-05-25T02:00:12.186Z,22.41
2019-05-25T02:01:12.180Z,22.35
2019-05-25T02:02:12.176Z,22.36
2019-05-25T02:03:12.170Z,22.42
2019-05-25T02:04:12.189Z,22.42
2019-05-25T02:05:12.158Z,22.38
2019-05-25T02:06:12.149Z,22.39
2019-05-25T02:07:12.144Z,22.38
2019-05-25T02:08:12.135Z,22.39
2019-05-25T02:09:12.129Z,22.44
2019-05-25T02:10:12.121Z,22.38
2019-05-25T02:11:12.114Z,22.41
2019-05-25T02:12:12.111Z,22.36
2019-05-25T02:13:12.100Z,22.35
2019-05-25T02:14:12.095Z,22.36
2019-05-25T02:15:12.090Z,22.32
2019-05-25T02:16:12.080Z,22.39
2019-05-25T02:17:12.074Z,22.38
2019-05-25T02:18:12.120Z,22.39
2019-05-25T02:19:12.063Z,22.35
2019-05-25T02:20:12.059Z,22.34
2019-05-25T02:21:12.051Z,22.36
2019-05-25T02:22:12.059Z,22.38
2019-05-25T02:23:12.040Z,22.36
2019-05-25T02:24:12.034Z,22.38
2019-05-25T02:25:18.038Z,22.38
2019-05-25T02:26:14.020Z,22.38
2019-05-25T02:27:12.015Z,22.42
2019-05-25T02:28:12.008Z,22.38
2019-05-25T02:29:12.005Z,22.39
2019-05-25T02:30:12.072Z,22.35
2019-05-25T02:31:12.010Z,22.32
2019-05-25T02:32:12.005Z,22.36
2019-05-25T02:33:11.997Z,22.38
2019-05-25T02:34:11.989Z,22.29
2019-05-25T02:35:11.982Z,22.23
2019-05-25T02:36:12.024Z,22.34
2019-05-25T02:37:11.969Z,22.30
2019-05-25T02:38:11.985Z,22.29
2019-05-25T02:39:11.979Z,22.38
2019-05-25T02:40:11.975Z,22.32
2019-05-25T02:41:11.966Z,22.29
2019-05-25T02:42:11.962Z,22.29
2019-05-25T02:43:11.955Z,22.35
2019-05-25T02:44:11.948Z,22.35
2019-05-25T02:45:11.941Z,22.34
2019-05-25T02:46:11.936Z,22.27
2019-05-25T02:47:11.930Z,22.39
2019-05-25T02:48:11.925Z,22.26
2019-05-25T02:49:11.916Z,22.26
2019-05-25T02:50:11.909Z,22.21
2019-05-25T02:51:11.909Z,22.32
2019-05-25T02:52:11.904Z,22.30
2019-05-25T02:53:11.891Z,22.29
2019-05-25T02:54:11.887Z,22.30
2019-05-25T02:55:11.875Z,22.32
2019-05-25T02:56:11.873Z,22.26
2019-05-25T02:57:11.863Z,22.34
2019-05-25T02:58:11.859Z,22.39
2019-05-25T02:59:11.854Z,22.26
2019-05-25T03:00:11.902Z,22.34
2019-05-25T03:01:11.837Z,22.35
2019-05-25T03:02:11.833Z,22.29
2019-05-25T03:03:11.825Z,22.29
2019-05-25T03:04:11.817Z,22.30
2019-05-25T03:05:11.812Z,22.26
2019-05-25T03:06:12.081Z,22.30
2019-05-25T03:07:11.800Z,22.26
2019-05-25T03:08:11.793Z,22.27
2019-05-25T03:09:11.786Z,22.38
2019-05-25T03:10:11.791Z,22.21
2019-05-25T03:11:11.776Z,22.27
2019-05-25T03:12:11.768Z,22.23
2019-05-25T03:13:11.763Z,22.24
2019-05-25T03:14:11.759Z,22.26
2019-05-25T03:15:11.747Z,22.30
2019-05-25T03:16:11.741Z,22.38
2019-05-25T03:17:11.735Z,22.30
2019-05-25T03:18:11.728Z,22.30
2019-05-25T03:19:11.721Z,22.26
2019-05-25T03:20:11.715Z,22.29
2019-05-25T03:21:11.708Z,22.23
2019-05-25T03:22:11.702Z,22.32
2019-05-25T03:23:11.696Z,22.17
2019-05-25T03:24:11.690Z,22.23
2019-05-25T03:25:11.683Z,22.27
2019-05-25T03:26:11.672Z,22.19
2019-05-25T03:27:11.669Z,22.32
2019-05-25T03:28:11.659Z,22.30
2019-05-25T03:29:11.653Z,22.34
2019-05-25T03:30:11.665Z,22.26
2019-05-25T03:31:11.640Z,22.23
2019-05-25T03:32:11.639Z,22.34
2019-05-25T03:33:11.638Z,22.24
2019-05-25T03:34:11.624Z,22.34
2019-05-25T03:35:11.623Z,22.26
2019-05-25T03:36:11.610Z,22.19
2019-05-25T03:37:11.604Z,22.30
2019-05-25T03:38:11.615Z,22.24
2019-05-25T03:39:11.587Z,22.27
2019-05-25T03:40:11.582Z,22.29
2019-05-25T03:41:11.573Z,22.35
2019-05-25T03:42:11.569Z,22.30
2019-05-25T03:43:11.560Z,22.34
2019-05-25T03:44:11.554Z,22.36
2019-05-25T03:45:11.551Z,22.30
2019-05-25T03:46:11.547Z,22.23
2019-05-25T03:47:11.558Z,22.24
2019-05-25T03:48:11.547Z,22.26
2019-05-25T03:49:11.539Z,22.26
2019-05-25T03:50:11.535Z,22.19
2019-05-25T03:51:11.527Z,22.34
2019-05-25T03:52:11.565Z,22.30
2019-05-25T03:53:11.561Z,22.32
2019-05-25T03:54:11.531Z,22.24
2019-05-25T03:55:11.524Z,22.26
2019-05-25T03:56:11.518Z,22.27
2019-05-25T03:57:11.514Z,22.24
2019-05-25T03:58:11.508Z,22.26
2019-05-25T03:59:11.497Z,22.26
2019-05-25T04:00:11.491Z,22.27
2019-05-25T04:01:11.532Z,22.26
2019-05-25T04:02:11.496Z,22.26
2019-05-25T04:03:11.473Z,22.21
2019-05-25T04:04:11.470Z,22.21
2019-05-25T04:05:11.461Z,22.29
2019-05-25T04:06:11.456Z,22.19
2019-05-25T04:07:11.447Z,22.21
2019-05-25T04:08:11.443Z,22.26
2019-05-25T04:09:11.436Z,22.26
2019-05-25T04:10:11.433Z,22.26
2019-05-25T04:11:11.420Z,22.36
2019-05-25T04:12:11.418Z,22.32
2019-05-25T04:13:11.408Z,22.24
2019-05-25T04:14:11.399Z,22.24
2019-05-25T04:15:11.399Z,22.34
2019-05-25T04:16:11.389Z,22.27
2019-05-25T04:17:11.377Z,22.26
2019-05-25T04:18:11.373Z,22.27
2019-05-25T04:19:11.365Z,22.26
2019-05-25T04:20:11.361Z,22.24
2019-05-25T04:21:11.364Z,22.27
2019-05-25T04:22:11.346Z,22.26
2019-05-25T04:23:11.342Z,22.34
2019-05-25T04:24:11.333Z,22.26
2019-05-25T04:25:11.340Z,22.27
2019-05-25T04:26:22.118Z,22.21
2019-05-25T04:27:39.093Z,22.26
2019-05-25T04:28:39.146Z,22.26
2019-05-25T04:29:39.080Z,22.34
2019-05-25T04:30:39.084Z,22.29
2019-05-25T04:31:39.064Z,22.23
2019-05-25T04:32:39.061Z,22.27
2019-05-25T04:33:39.051Z,22.34
2019-05-25T04:34:39.044Z,22.30
2019-05-25T04:35:39.037Z,22.39
2019-05-25T04:36:39.032Z,22.27
2019-05-25T04:37:39.026Z,22.36
2019-05-25T04:38:39.065Z,22.34
2019-05-25T04:39:39.012Z,22.35
2019-05-25T04:40:39.008Z,22.39
2019-05-25T04:41:39.001Z,22.36
2019-05-25T04:42:38.995Z,22.41
2019-05-25T04:43:38.988Z,22.38
2019-05-25T04:44:38.982Z,22.44
2019-05-25T04:45:38.988Z,22.50
2019-05-25T04:46:38.971Z,22.51
2019-05-25T04:47:39.020Z,22.50
2019-05-25T04:48:38.958Z,22.45
2019-05-25T04:49:38.952Z,22.60
2019-05-25T04:50:38.942Z,22.57
2019-05-25T04:51:38.935Z,22.51
2019-05-25T04:52:41.440Z,22.64
2019-05-25T04:53:38.993Z,22.68
2019-05-25T04:54:38.936Z,22.65
2019-05-25T04:55:38.929Z,22.67
2019-05-25T04:56:40.204Z,22.80
2019-05-25T04:57:38.912Z,22.86
2019-05-25T04:58:38.907Z,22.72
2019-05-25T04:59:38.955Z,22.73
2019-05-25T05:00:38.903Z,22.82
2019-05-25T05:01:38.888Z,22.82
2019-05-25T05:02:38.881Z,22.95
2019-05-25T05:03:38.873Z,23.16
2019-05-25T05:04:38.866Z,23.20
2019-05-25T05:05:38.861Z,23.28
2019-05-25T05:06:38.857Z,23.20
2019-05-25T05:07:38.848Z,23.16
2019-05-25T05:08:38.840Z,23.25
2019-05-25T05:09:38.840Z,23.27
2019-05-25T05:10:38.828Z,23.28
2019-05-25T05:11:38.826Z,23.27
2019-05-25T05:12:38.819Z,23.15
2019-05-25T05:13:38.810Z,23.20
2019-05-25T05:14:38.802Z,23.16
2019-05-25T05:15:38.797Z,23.13
2019-05-25T05:16:38.791Z,23.01
2019-05-25T05:17:38.838Z,23.05
2019-05-25T05:18:38.780Z,22.92
2019-05-25T05:19:38.778Z,22.95
2019-05-25T05:20:38.766Z,22.98
2019-05-25T05:21:38.785Z,22.92
2019-05-25T05:22:38.750Z,22.95
2019-05-25T05:23:38.770Z,22.94
2019-05-25T05:24:38.763Z,22.92
2019-05-25T05:25:38.756Z,22.91
2019-05-25T05:26:52.810Z,22.91
2019-05-25T05:28:06.486Z,22.90
2019-05-25T05:29:06.538Z,22.85
2019-05-25T05:30:06.476Z,22.88
2019-05-25T05:31:20.977Z,22.92
2019-05-25T05:32:33.689Z,22.88
2019-05-25T05:33:33.691Z,22.94
2019-05-25T05:34:33.681Z,22.97
2019-05-25T05:35:33.673Z,22.98
2019-05-25T05:36:33.667Z,22.95
2019-05-25T05:37:33.659Z,22.91
2019-05-25T05:38:33.650Z,22.88
2019-05-25T05:39:33.646Z,22.92
2019-05-25T05:40:33.639Z,22.94
2019-05-25T05:41:33.633Z,22.86
2019-05-25T05:42:33.625Z,22.94
2019-05-25T05:43:33.616Z,22.94
2019-05-25T05:44:33.608Z,22.91
2019-05-25T05:45:33.601Z,22.90
2019-05-25T05:46:33.644Z,22.88
2019-05-25T05:47:33.586Z,22.88
2019-05-25T05:48:33.618Z,22.98
2019-05-25T05:49:33.575Z,22.97
2019-05-25T05:50:33.564Z,22.92
2019-05-25T05:51:33.559Z,23.02
2019-05-25T05:52:33.603Z,23.01
2019-05-25T05:53:33.545Z,22.97
2019-05-25T05:54:33.540Z,23.05
2019-05-25T05:55:33.534Z,23.04
2019-05-25T05:56:33.532Z,23.17
2019-05-25T05:57:33.520Z,23.19
2019-05-25T05:58:33.514Z,23.25
2019-05-25T05:59:33.506Z,23.25
2019-05-25T06:00:33.500Z,23.28
2019-05-25T06:01:33.509Z,23.32
2019-05-25T06:02:33.487Z,23.47
2019-05-25T06:03:33.479Z,23.56
2019-05-25T06:04:33.472Z,23.57
2019-05-25T06:05:33.469Z,23.59
2019-05-25T06:06:33.460Z,23.60
2019-05-25T06:07:33.478Z,23.67
2019-05-25T06:08:33.471Z,23.71
2019-05-25T06:09:33.468Z,23.79
2019-05-25T06:10:33.460Z,23.89
2019-05-25T06:11:33.453Z,23.99
2019-05-25T06:12:33.448Z,24.03
2019-05-25T06:13:33.439Z,24.05
2019-05-25T06:14:33.436Z,24.10
2019-05-25T06:15:33.429Z,24.09
2019-05-25T06:16:33.423Z,23.99
2019-05-25T06:17:33.426Z,24.10
2019-05-25T06:18:33.410Z,24.12
2019-05-25T06:19:33.404Z,24.05
2019-05-25T06:20:33.405Z,24.02
2019-05-25T06:21:33.439Z,23.99
2019-05-25T06:22:33.385Z,24.08
2019-05-25T06:23:33.379Z,24.08
2019-05-25T06:24:33.373Z,24.10
2019-05-25T06:25:33.366Z,24.16
2019-05-25T06:26:33.360Z,24.13
2019-05-25T06:27:33.353Z,24.32
2019-05-25T06:28:33.347Z,24.37
2019-05-25T06:29:33.340Z,24.42
2019-05-25T06:30:33.342Z,24.43
2019-05-25T06:31:33.330Z,24.43
2019-05-25T06:32:33.321Z,24.67
2019-05-25T06:33:33.318Z,24.87
2019-05-25T06:34:33.370Z,25.05
2019-05-25T06:35:33.304Z,25.35
2019-05-25T06:36:33.299Z,25.50
2019-05-25T06:37:33.290Z,25.47
2019-05-25T06:38:33.284Z,25.72
2019-05-25T06:39:33.276Z,25.98
2019-05-25T06:40:33.272Z,26.07
2019-05-25T06:41:33.266Z,26.31
2019-05-25T06:42:33.257Z,26.46
2019-05-25T06:43:33.249Z,26.65
2019-05-25T06:44:33.244Z,26.68
2019-05-25T06:45:33.240Z,26.64
2019-05-25T06:46:33.282Z,26.61
2019-05-25T06:47:33.225Z,26.57
2019-05-25T06:48:33.218Z,26.49
2019-05-25T06:49:33.235Z,26.49
2019-05-25T06:50:33.248Z,26.51
2019-05-25T06:51:33.241Z,26.47
2019-05-25T06:52:33.235Z,26.28
2019-05-25T06:53:33.227Z,26.47
2019-05-25T06:54:33.222Z,26.42
2019-05-25T06:55:33.214Z,26.47
2019-05-25T06:56:33.209Z,26.47
2019-05-25T06:57:42.552Z,26.53
2019-05-25T06:59:00.998Z,26.64
2019-05-25T07:00:00.996Z,26.65
2019-05-25T07:01:00.995Z,26.61
2019-05-25T07:02:00.985Z,26.83
2019-05-25T07:03:00.979Z,26.97
2019-05-25T07:04:00.973Z,27.10
2019-05-25T07:05:00.965Z,27.19
2019-05-25T07:06:00.960Z,27.24
2019-05-25T07:07:00.951Z,27.17
2019-05-25T07:08:00.946Z,27.21
2019-05-25T07:09:00.940Z,27.13
2019-05-25T07:10:00.982Z,27.10
2019-05-25T07:11:00.927Z,27.02
2019-05-25T07:12:00.918Z,27.07
2019-05-25T07:13:00.913Z,27.13
2019-05-25T07:14:00.912Z,27.14
2019-05-25T07:15:00.900Z,27.18
2019-05-25T07:16:00.894Z,27.17
2019-05-25T07:17:00.891Z,27.17
2019-05-25T07:18:00.883Z,27.22
2019-05-25T07:19:00.878Z,27.22
2019-05-25T07:20:00.873Z,27.27
2019-05-25T07:21:00.865Z,27.29
2019-05-25T07:22:00.861Z,27.44
2019-05-25T07:23:00.908Z,27.56
2019-05-25T07:24:00.847Z,27.66
2019-05-25T07:25:00.841Z,27.71
2019-05-25T07:26:00.842Z,27.84
2019-05-25T07:27:00.828Z,27.76
2019-05-25T07:28:00.822Z,27.66
2019-05-25T07:29:00.816Z,27.76
2019-05-25T07:30:00.809Z,27.78
2019-05-25T07:31:00.800Z,27.65
2019-05-25T07:32:00.793Z,27.64
2019-05-25T07:33:00.788Z,27.50
2019-05-25T07:34:00.835Z,27.56
2019-05-25T07:35:00.777Z,27.58
2019-05-25T07:36:00.775Z,27.73
2019-05-25T07:37:00.764Z,27.77
2019-05-25T07:38:00.756Z,27.80
2019-05-25T07:39:00.750Z,27.89
2019-05-25T07:40:00.741Z,27.95
2019-05-25T07:41:00.735Z,27.96
2019-05-25T07:42:00.801Z,28.08
2019-05-25T07:43:00.720Z,28.31
2019-05-25T07:44:00.717Z,28.49
2019-05-25T07:45:00.710Z,28.55
2019-05-25T07:46:00.703Z,28.54
2019-05-25T07:47:00.697Z,28.59
2019-05-25T07:48:00.691Z,28.48
2019-05-25T07:49:00.681Z,28.46
2019-05-25T07:50:00.679Z,28.34
2019-05-25T07:51:00.671Z,28.34
2019-05-25T07:52:02.823Z,28.39
2019-05-25T07:53:00.661Z,28.34
2019-05-25T07:54:00.649Z,28.39
2019-05-25T07:55:00.643Z,28.52
2019-05-25T07:56:00.636Z,28.46
2019-05-25T07:57:00.631Z,28.52
2019-05-25T07:58:15.836Z,28.59
2019-05-25T07:59:28.345Z,28.56
2019-05-25T08:00:28.340Z,28.59
2019-05-25T08:01:28.335Z,28.62
2019-05-25T08:02:28.327Z,28.76
2019-05-25T08:03:28.322Z,28.81
2019-05-25T08:04:28.317Z,28.95
2019-05-25T08:05:28.312Z,28.88
2019-05-25T08:06:28.304Z,28.88
2019-05-25T08:07:56.084Z,28.92
2019-05-25T08:08:56.121Z,29.23
2019-05-25T08:09:56.012Z,29.17
2019-05-25T08:10:56.007Z,29.22
2019-05-25T08:11:56.008Z,29.27
2019-05-25T08:12:55.998Z,29.45
2019-05-25T08:13:55.988Z,29.56
2019-05-25T08:14:55.982Z,29.71
2019-05-25T08:15:55.974Z,29.82
2019-05-25T08:16:55.969Z,29.80
2019-05-25T08:17:55.960Z,30.01
2019-05-25T08:18:55.958Z,30.22
2019-05-25T08:19:55.966Z,30.37
2019-05-25T08:20:55.942Z,30.38
2019-05-25T08:21:55.940Z,30.56
2019-05-25T08:22:55.928Z,30.66
2019-05-25T08:23:55.921Z,30.83
2019-05-25T08:24:55.916Z,30.96
2019-05-25T08:25:55.911Z,31.11
2019-05-25T08:26:55.906Z,31.21
2019-05-25T08:27:55.900Z,31.41
2019-05-25T08:28:55.899Z,31.69
2019-05-25T08:29:55.893Z,31.75
2019-05-25T08:30:55.888Z,31.91
2019-05-25T08:31:55.925Z,32.18
2019-05-25T08:32:55.920Z,32.29
2019-05-25T08:33:55.864Z,32.57
2019-05-25T08:34:55.858Z,32.78
2019-05-25T08:35:55.849Z,32.88
2019-05-25T08:36:55.847Z,33.16
2019-05-25T08:37:55.842Z,33.23
2019-05-25T08:38:55.882Z,33.22
2019-05-25T08:39:55.827Z,33.33
2019-05-25T08:40:55.822Z,33.58
2019-05-25T08:41:55.815Z,33.65
2019-05-25T08:42:55.808Z,33.83
2019-05-25T08:43:55.801Z,33.83
2019-05-25T08:44:55.796Z,34.03
2019-05-25T08:45:55.790Z,34.10
2019-05-25T08:46:55.810Z,34.31
2019-05-25T08:47:57.163Z,34.40
2019-05-25T08:48:55.770Z,34.61
2019-05-25T08:49:55.768Z,34.62
2019-05-25T08:50:59.375Z,34.71
2019-05-25T08:51:55.756Z,34.88
2019-05-25T08:52:55.749Z,35.01
2019-05-25T08:53:55.782Z,35.13
2019-05-25T08:54:56.727Z,35.21
2019-05-25T08:55:55.752Z,35.22
2019-05-25T08:56:55.871Z,35.45
2019-05-25T08:57:55.738Z,35.52
2019-05-25T08:58:55.837Z,35.60
2019-05-25T08:59:55.725Z,35.80
2019-05-25T09:00:55.716Z,35.90
2019-05-25T09:01:55.713Z,36.05
2019-05-25T09:02:55.713Z,36.24
2019-05-25T09:03:55.700Z,36.31
2019-05-25T09:04:55.695Z,36.09
2019-05-25T09:05:55.688Z,35.68
2019-05-25T09:06:55.680Z,35.32
2019-05-25T09:07:55.755Z,35.35
2019-05-25T09:08:55.721Z,35.17
2019-05-25T09:09:55.663Z,34.76
2019-05-25T09:10:55.658Z,34.42
2019-05-25T09:11:55.648Z,34.49
2019-05-25T09:12:55.646Z,34.37
2019-05-25T09:13:55.641Z,34.15
2019-05-25T09:14:55.637Z,33.97
2019-05-25T09:15:55.649Z,34.42
2019-05-25T09:16:55.624Z,34.39
2019-05-25T09:17:55.615Z,34.09
2019-05-25T09:18:55.612Z,33.93
2019-05-25T09:19:55.605Z,33.68
2019-05-25T09:20:55.608Z,34.16
2019-05-25T09:22:02.410Z,33.86
2019-05-25T09:23:23.326Z,33.74
2019-05-25T09:24:23.323Z,33.77
2019-05-25T09:25:23.317Z,34.52
2019-05-25T09:26:23.313Z,35.08
2019-05-25T09:27:23.308Z,35.70
2019-05-25T09:28:23.299Z,36.07
2019-05-25T09:29:23.296Z,36.15
2019-05-25T09:30:23.288Z,35.65
2019-05-25T09:31:23.283Z,35.44
2019-05-25T09:32:23.275Z,34.87
2019-05-25T09:33:23.275Z,34.16
2019-05-25T09:34:23.264Z,33.53
2019-05-25T09:35:23.260Z,33.01
2019-05-25T09:36:23.253Z,32.62
2019-05-25T09:37:23.253Z,32.32
2019-05-25T09:38:23.243Z,32.65
2019-05-25T09:39:23.234Z,33.75
2019-05-25T09:40:23.232Z,34.58
2019-05-25T09:41:23.222Z,34.87
2019-05-25T09:42:23.217Z,35.15
2019-05-25T09:43:23.212Z,35.80
2019-05-25T09:44:23.256Z,35.75
2019-05-25T09:45:23.198Z,36.48
2019-05-25T09:46:23.194Z,36.80
2019-05-25T09:47:23.188Z,37.03
2019-05-25T09:48:23.197Z,37.32
2019-05-25T09:49:23.182Z,37.41
2019-05-25T09:50:23.175Z,37.51
2019-05-25T09:51:23.169Z,37.69
2019-05-25T09:52:23.163Z,37.29
2019-05-25T09:53:23.163Z,36.37
2019-05-25T09:54:23.157Z,35.53
2019-05-25T09:55:23.153Z,35.01
2019-05-25T09:56:23.144Z,35.48
2019-05-25T09:57:23.139Z,36.07
2019-05-25T09:58:23.131Z,36.45
2019-05-25T09:59:23.128Z,36.71
2019-05-25T10:00:23.122Z,36.30
2019-05-25T10:01:23.117Z,35.93
2019-05-25T10:02:23.162Z,35.90
2019-05-25T10:03:23.100Z,36.37
2019-05-25T10:04:23.096Z,36.21
2019-05-25T10:05:23.123Z,36.33
2019-05-25T10:06:23.083Z,36.68
2019-05-25T10:07:23.081Z,37.12
2019-05-25T10:08:23.083Z,37.41
2019-05-25T10:09:23.076Z,37.55
2019-05-25T10:10:23.068Z,37.78
2019-05-25T10:11:23.062Z,37.80
2019-05-25T10:12:23.057Z,37.37
2019-05-25T10:13:23.054Z,37.31
2019-05-25T10:14:23.045Z,36.99
2019-05-25T10:15:23.040Z,36.67
2019-05-25T10:16:23.036Z,36.38
2019-05-25T10:17:23.032Z,36.00
2019-05-25T10:18:23.027Z,36.40
2019-05-25T10:19:23.021Z,36.45
2019-05-25T10:20:23.067Z,36.74
2019-05-25T10:21:23.013Z,36.11
2019-05-25T10:22:23.007Z,35.48
2019-05-25T10:23:23.001Z,35.25
2019-05-25T10:24:22.997Z,35.65
2019-05-25T10:25:22.990Z,36.16
2019-05-25T10:26:23.275Z,36.43
2019-05-25T10:27:22.977Z,36.45
2019-05-25T10:28:22.974Z,36.11
2019-05-25T10:29:36.120Z,36.30
2019-05-25T10:30:24.960Z,36.50
2019-05-25T10:31:22.958Z,36.77
2019-05-25T10:32:22.948Z,36.85
2019-05-25T10:33:22.945Z,36.99
2019-05-25T10:34:22.936Z,37.09
2019-05-25T10:35:22.932Z,37.10
2019-05-25T10:36:22.928Z,37.07
2019-05-25T10:37:22.924Z,37.06
2019-05-25T10:38:22.919Z,37.02
2019-05-25T10:39:22.914Z,36.98
2019-05-25T10:40:22.906Z,36.88
2019-05-25T10:41:22.898Z,36.84
2019-05-25T10:42:22.913Z,36.74
2019-05-25T10:43:22.909Z,36.70
2019-05-25T10:44:22.897Z,36.56
2019-05-25T10:45:22.903Z,36.53
2019-05-25T10:46:22.884Z,36.43
2019-05-25T10:47:22.888Z,36.36
2019-05-25T10:48:22.917Z,36.38
2019-05-25T10:49:22.870Z,36.26
2019-05-25T10:50:22.864Z,36.24
2019-05-25T10:51:22.902Z,36.11
2019-05-25T10:52:22.870Z,35.99
2019-05-25T10:53:22.865Z,35.92
2019-05-25T10:54:22.857Z,35.77
2019-05-25T10:55:22.852Z,35.60
2019-05-25T10:56:22.896Z,35.43
2019-05-25T10:57:22.852Z,35.36
2019-05-25T10:58:22.847Z,35.18
2019-05-25T10:59:22.840Z,34.96
2019-05-25T11:00:22.838Z,34.81
2019-05-25T11:01:22.827Z,34.52
2019-05-25T11:02:22.824Z,34.22
2019-05-25T11:03:22.815Z,33.93
2019-05-25T11:04:22.810Z,33.64
2019-05-25T11:05:22.802Z,33.28
2019-05-25T11:06:22.795Z,32.94
2019-05-25T11:07:22.790Z,32.62
2019-05-25T11:08:22.784Z,32.36
2019-05-25T11:09:22.792Z,32.20
2019-05-25T11:10:22.771Z,31.94
2019-05-25T11:11:22.767Z,31.69
2019-05-25T11:12:25.891Z,31.58
2019-05-25T11:13:22.753Z,31.34
2019-05-25T11:14:22.744Z,31.11
2019-05-25T11:15:22.742Z,31.13
2019-05-25T11:16:22.734Z,30.97
2019-05-25T11:17:22.728Z,30.88
2019-05-25T11:18:22.721Z,30.68
2019-05-25T11:19:24.356Z,30.56
2019-05-25T11:20:22.708Z,30.39
2019-05-25T11:21:22.700Z,30.37
2019-05-25T11:22:22.712Z,30.15
2019-05-25T11:23:22.688Z,30.10
2019-05-25T11:24:22.689Z,29.95
2019-05-25T11:25:22.680Z,29.85
2019-05-25T11:26:22.670Z,29.86
2019-05-25T11:27:22.664Z,29.80
2019-05-25T11:28:22.662Z,29.67
2019-05-25T11:29:22.650Z,29.59
2019-05-25T11:30:22.643Z,29.52
2019-05-25T11:31:22.639Z,29.44
2019-05-25T11:32:22.629Z,29.51
2019-05-25T11:33:22.627Z,29.42
2019-05-25T11:34:22.621Z,29.35
2019-05-25T11:35:22.613Z,29.32
2019-05-25T11:36:22.606Z,29.30
2019-05-25T11:37:22.601Z,29.18
2019-05-25T11:38:22.600Z,29.17
2019-05-25T11:39:22.588Z,29.14
2019-05-25T11:40:22.585Z,29.04
2019-05-25T11:41:22.579Z,29.04
2019-05-25T11:42:22.571Z,29.01
2019-05-25T11:43:22.566Z,28.92
2019-05-25T11:44:22.562Z,28.89
2019-05-25T11:45:22.555Z,28.76
2019-05-25T11:46:22.547Z,28.80
2019-05-25T11:47:22.545Z,28.76
2019-05-25T11:48:22.532Z,28.70
2019-05-25T11:49:23.121Z,28.62
2019-05-25T11:50:22.556Z,28.64
2019-05-25T11:51:22.514Z,28.66
2019-05-25T11:53:22.502Z,28.56
2019-05-25T11:54:22.493Z,28.48
2019-05-25T11:56:22.487Z,28.40
2019-05-25T11:57:22.477Z,28.40
2019-05-25T11:58:22.468Z,28.40
2019-05-25T11:59:22.465Z,28.29
2019-05-25T12:00:25.430Z,28.30
2019-05-25T12:01:22.460Z,28.23
2019-05-25T12:02:24.448Z,28.17
2019-05-25T12:03:22.441Z,28.11
2019-05-25T12:04:22.435Z,28.14
2019-05-25T12:05:22.426Z,28.06
2019-05-25T12:06:22.420Z,28.05
2019-05-25T12:07:22.412Z,27.99
2019-05-25T12:09:22.399Z,27.92
2019-05-25T12:10:22.394Z,27.89
2019-05-25T12:11:22.385Z,27.84
2019-05-25T12:12:22.381Z,27.87
2019-05-25T12:13:22.373Z,27.86
2019-05-25T12:14:22.366Z,27.81
2019-05-25T12:15:22.360Z,27.80
2019-05-25T12:16:50.131Z,27.66
2019-05-25T12:17:50.127Z,27.73
2019-05-25T12:18:50.119Z,27.66
2019-05-25T12:19:50.114Z,27.69
2019-05-25T12:20:50.107Z,27.65
2019-05-25T12:21:50.102Z,27.58
2019-05-25T12:22:50.383Z,27.61
2019-05-25T12:23:50.100Z,27.56
2019-05-25T12:24:50.085Z,27.50
2019-05-25T12:25:50.128Z,27.54
2019-05-25T12:26:50.069Z,27.46
2019-05-25T12:27:50.062Z,27.46
2019-05-25T12:28:50.055Z,27.43
2019-05-25T12:29:50.051Z,27.43
2019-05-25T12:30:50.047Z,27.36
2019-05-25T12:31:50.037Z,27.28
2019-05-25T12:32:50.031Z,27.27
2019-05-25T12:33:50.023Z,27.32
2019-05-25T12:34:50.019Z,27.22
2019-05-25T12:35:50.012Z,27.31
2019-05-25T12:36:50.006Z,27.19
2019-05-25T12:37:50.049Z,27.17
2019-05-25T12:38:49.995Z,27.17
2019-05-25T12:39:49.983Z,27.27
2019-05-25T12:40:53.675Z,27.10
2019-05-25T12:41:49.970Z,27.14
2019-05-25T12:42:49.971Z,27.19
2019-05-25T12:43:50.007Z,27.04
2019-05-25T12:44:49.995Z,27.09
2019-05-25T12:45:49.946Z,27.00
2019-05-25T12:46:49.942Z,26.99
2019-05-25T12:47:49.935Z,27.07
2019-05-25T12:48:49.933Z,26.95
2019-05-25T12:49:51.105Z,27.07
2019-05-25T12:50:49.918Z,27.04
2019-05-25T12:51:49.912Z,26.99
2019-05-25T12:52:50.011Z,26.95
2019-05-25T12:53:49.901Z,26.89
2019-05-25T12:54:49.892Z,26.84
2019-05-25T12:55:49.889Z,26.91
2019-05-25T12:56:49.879Z,26.81
2019-05-25T12:57:51.471Z,26.87
2019-05-25T12:58:50.355Z,26.81
2019-05-25T12:59:49.863Z,26.80